createdAt,value
2023-03-05T00:00:49.105Z,13.40
2023-03-05T00:03:15.611Z,14.05
2023-03-05T00:05:42.072Z,13.27
2023-03-05T00:08:08.536Z,13.02
2023-03-05T00:10:34.976Z,13.05
2023-03-05T00:13:01.428Z,13.55
2023-03-05T00:15:28.068Z,14.13
2023-03-05T00:17:54.512Z,13.48
2023-03-05T00:20:20.949Z,13.68
2023-03-05T00:22:47.655Z,13.77
2023-03-05T00:25:14.078Z,13.40
2023-03-05T00:27:40.637Z,13.82
2023-03-05T00:30:08.018Z,13.55
2023-03-05T00:32:36.385Z,14.25
2023-03-05T00:35:03.002Z,13.40
2023-03-05T00:37:29.508Z,14.75
2023-03-05T00:39:56.035Z,13.13
2023-03-05T00:42:22.555Z,14.02
2023-03-05T00:44:49.011Z,13.55
2023-03-05T00:47:18.507Z,14.82
2023-03-05T00:49:45.165Z,15.35
2023-03-05T00:52:11.685Z,14.57
2023-03-05T00:54:38.182Z,14.77
2023-03-05T00:57:05.733Z,14.07
2023-03-05T00:59:32.201Z,14.10
2023-03-05T01:01:58.940Z,14.23
2023-03-05T01:04:25.417Z,14.93
2023-03-05T01:06:51.945Z,14.45
2023-03-05T01:09:18.929Z,15.27
2023-03-05T01:11:45.401Z,13.77
2023-03-05T01:14:11.855Z,14.27
2023-03-05T01:16:38.459Z,14.23
2023-03-05T01:19:05.352Z,14.80
2023-03-05T01:21:32.343Z,14.63
2023-03-05T01:23:59.008Z,16.08
2023-03-05T01:26:25.505Z,14.95
2023-03-05T01:28:51.956Z,15.55
2023-03-05T01:31:18.752Z,15.10
2023-03-05T01:33:45.354Z,14.75
2023-03-05T01:36:15.479Z,15.40
2023-03-05T01:38:43.414Z,15.20
2023-03-05T01:41:10.834Z,14.05
2023-03-05T01:43:37.338Z,15.20
2023-03-05T01:46:12.915Z,14.77
2023-03-05T01:48:40.796Z,14.60
2023-03-05T01:51:07.516Z,14.10
2023-03-05T01:53:33.974Z,14.93
2023-03-05T01:56:00.510Z,15.38
2023-03-05T01:58:27.224Z,15.10
2023-03-05T02:00:54.423Z,15.75
2023-03-05T02:03:22.731Z,15.40
2023-03-05T02:05:49.752Z,14.65
2023-03-05T02:08:18.948Z,15.30
2023-03-05T02:10:48.405Z,14.80
2023-03-05T02:13:17.494Z,15.80
2023-03-05T02:15:44.327Z,14.30
2023-03-05T02:18:11.242Z,14.93
2023-03-05T02:20:43.801Z,15.32
2023-03-05T02:23:10.327Z,15.63
2023-03-05T02:25:36.790Z,14.88
2023-03-05T02:28:08.232Z,15.55
2023-03-05T02:30:35.508Z,16.63
2023-03-05T02:33:02.010Z,15.35
2023-03-05T02:35:28.612Z,15.85
2023-03-05T02:37:55.094Z,16.10
2023-03-05T02:40:21.883Z,15.98
2023-03-05T02:42:49.097Z,15.45
2023-03-05T02:45:16.194Z,16.13
2023-03-05T02:47:42.921Z,15.05
2023-03-05T02:50:11.413Z,15.75
2023-03-05T02:52:38.528Z,15.65
2023-03-05T02:55:09.474Z,15.80
2023-03-05T02:57:37.123Z,15.90
2023-03-05T03:00:05.639Z,15.57
2023-03-05T03:02:32.454Z,15.82
2023-03-05T03:04:58.966Z,16.13
2023-03-05T03:07:25.535Z,15.73
2023-03-05T03:09:52.082Z,15.65
2023-03-05T03:12:18.518Z,15.75
2023-03-05T03:14:44.959Z,15.77
2023-03-05T03:17:17.318Z,15.35
2023-03-05T03:19:44.983Z,15.80
2023-03-05T03:22:13.032Z,14.88
2023-03-05T03:24:40.949Z,15.00
2023-03-05T03:27:08.166Z,15.05
2023-03-05T03:29:34.826Z,13.18
2023-03-05T03:32:01.367Z,13.40
2023-03-05T03:34:28.022Z,13.48
2023-03-05T03:36:54.750Z,13.65
2023-03-05T03:39:22.230Z,13.15
2023-03-05T03:41:51.050Z,12.85
2023-03-05T03:44:19.042Z,13.48
2023-03-05T03:46:46.324Z,13.27
2023-03-05T03:49:19.266Z,14.57
2023-03-05T03:51:46.453Z,12.80
2023-03-05T03:54:14.199Z,12.43
2023-03-05T03:56:40.711Z,13.77
2023-03-05T03:59:07.596Z,14.10
2023-03-05T04:01:34.209Z,12.85
2023-03-05T04:04:00.880Z,12.38
2023-03-05T04:06:27.496Z,12.93
2023-03-05T04:08:54.088Z,12.70
2023-03-05T04:11:20.523Z,12.90
2023-03-05T04:13:47.496Z,12.65
2023-03-05T04:16:14.783Z,14.50
2023-03-05T04:18:41.958Z,12.65
2023-03-05T04:21:08.524Z,12.77
2023-03-05T04:23:35.426Z,14.00
2023-03-05T04:26:01.998Z,14.18
2023-03-05T04:28:28.614Z,13.20
2023-03-05T04:30:55.140Z,14.05
2023-03-05T04:33:21.667Z,12.75
2023-03-05T04:35:48.298Z,13.82
2023-03-05T04:38:14.765Z,12.77
2023-03-05T04:40:41.442Z,13.43
2023-03-05T04:43:08.147Z,12.98
2023-03-05T04:45:34.730Z,13.00
2023-03-05T04:48:01.217Z,13.25
2023-03-05T04:50:27.694Z,14.02
2023-03-05T04:52:54.397Z,13.82
2023-03-05T04:55:20.892Z,13.50
2023-03-05T04:57:47.402Z,14.13
2023-03-05T05:00:15.446Z,13.50
2023-03-05T05:02:43.773Z,13.38
2023-03-05T05:05:12.994Z,14.60
2023-03-05T05:07:39.487Z,13.98
2023-03-05T05:10:08.021Z,16.15
2023-03-05T05:12:35.031Z,17.88
2023-03-05T05:15:01.799Z,17.52
2023-03-05T05:17:32.865Z,18.02
2023-03-05T05:20:06.438Z,14.23
2023-03-05T05:22:33.335Z,15.13
2023-03-05T05:24:59.912Z,15.75
2023-03-05T05:27:26.396Z,17.38
2023-03-05T05:29:53.041Z,15.90
2023-03-05T05:32:21.110Z,17.00
2023-03-05T05:34:48.227Z,17.88
2023-03-05T05:37:14.815Z,17.27
2023-03-05T05:39:41.305Z,17.60
2023-03-05T05:42:07.841Z,18.00
2023-03-05T05:44:34.864Z,18.02
2023-03-05T05:47:01.752Z,17.88
2023-03-05T05:49:28.297Z,18.17
2023-03-05T05:51:54.752Z,18.73
2023-03-05T05:54:21.275Z,17.70
2023-03-05T05:56:47.767Z,18.42
2023-03-05T05:59:14.268Z,17.90
2023-03-05T06:01:40.842Z,17.75
2023-03-05T06:04:07.640Z,18.73
2023-03-05T06:06:34.966Z,19.00
2023-03-05T06:09:01.968Z,19.70
2023-03-05T06:11:28.612Z,18.52
2023-03-05T06:13:55.103Z,19.13
2023-03-05T06:16:23.868Z,19.23
2023-03-05T06:18:51.650Z,19.15
2023-03-05T06:21:19.749Z,17.83
2023-03-05T06:23:47.663Z,17.30
2023-03-05T06:26:16.876Z,18.02
2023-03-05T06:28:43.410Z,18.38
2023-03-05T06:31:21.982Z,18.27
2023-03-05T06:33:49.763Z,19.63
2023-03-05T06:36:17.704Z,19.75
2023-03-05T06:38:44.497Z,19.35
2023-03-05T06:41:13.885Z,20.25
2023-03-05T06:43:42.073Z,21.05
2023-03-05T06:46:12.923Z,20.83
2023-03-05T06:48:39.772Z,20.48
2023-03-05T06:51:13.412Z,20.77
2023-03-05T06:53:40.021Z,20.50
2023-03-05T06:56:06.630Z,20.65
2023-03-05T06:58:33.160Z,21.42
2023-03-05T07:00:59.653Z,21.58
2023-03-05T07:03:26.103Z,20.60
2023-03-05T07:05:52.514Z,20.23
2023-03-05T07:08:18.946Z,20.05
2023-03-05T07:10:45.485Z,20.83
2023-03-05T07:13:11.940Z,21.65
2023-03-05T07:15:39.174Z,21.33
2023-03-05T07:18:05.765Z,19.85
2023-03-05T07:20:36.948Z,20.92
2023-03-05T07:23:03.897Z,21.70
2023-03-05T07:25:30.868Z,20.13
2023-03-05T07:27:57.547Z,19.88
2023-03-05T07:30:23.974Z,19.05
2023-03-05T07:32:50.423Z,18.25
2023-03-05T07:35:16.901Z,19.33
2023-03-05T07:37:43.377Z,17.25
2023-03-05T07:40:11.904Z,18.38
2023-03-05T07:42:38.418Z,18.85
2023-03-05T07:45:14.361Z,20.27
2023-03-05T07:47:40.759Z,19.90
2023-03-05T07:50:07.671Z,19.45
2023-03-05T07:52:34.154Z,19.13
2023-03-05T07:55:00.762Z,18.50
2023-03-05T07:57:27.254Z,18.58
2023-03-05T07:59:53.708Z,18.52
2023-03-05T08:02:20.701Z,18.20
2023-03-05T08:04:47.156Z,18.23
2023-03-05T08:07:16.885Z,16.13
2023-03-05T08:09:43.316Z,17.00
2023-03-05T08:12:10.364Z,17.35
2023-03-05T08:14:37.881Z,16.23
2023-03-05T08:17:05.690Z,15.77
2023-03-05T08:19:32.931Z,15.82
2023-03-05T08:21:59.465Z,14.30
2023-03-05T08:24:29.432Z,15.77
2023-03-05T08:26:59.093Z,13.55
2023-03-05T08:29:26.080Z,13.52
2023-03-05T08:31:53.557Z,13.85
2023-03-05T08:34:20.900Z,14.95
2023-03-05T08:36:47.542Z,14.50
2023-03-05T08:39:13.990Z,13.25
2023-03-05T08:41:40.649Z,13.10
2023-03-05T08:44:07.058Z,13.05
2023-03-05T08:46:33.555Z,12.07
2023-03-05T08:49:00.384Z,11.77
2023-03-05T08:51:27.373Z,11.00
2023-03-05T08:53:55.306Z,11.45
2023-03-05T08:56:21.797Z,11.15
2023-03-05T08:58:48.427Z,11.57
2023-03-05T09:01:15.222Z,12.95
2023-03-05T09:03:41.666Z,11.98
2023-03-05T09:06:10.179Z,13.27
2023-03-05T09:08:36.847Z,11.73
2023-03-05T09:11:05.232Z,12.48
2023-03-05T09:13:31.792Z,11.53
2023-03-05T09:16:00.603Z,9.60
2023-03-05T09:18:27.389Z,8.70
2023-03-05T09:20:54.324Z,8.13
2023-03-05T09:23:21.195Z,9.35
2023-03-05T09:25:47.684Z,8.85
2023-03-05T09:28:14.270Z,8.60
2023-03-05T09:30:41.121Z,8.57
2023-03-05T09:33:07.908Z,8.07
2023-03-05T09:35:35.764Z,7.43
2023-03-05T09:38:02.989Z,11.32
2023-03-05T09:40:44.876Z,16.08
2023-03-05T09:43:44.251Z,9.23
2023-03-05T09:46:20.906Z,8.10
2023-03-05T09:49:10.440Z,8.18
2023-03-05T09:51:40.271Z,7.32
2023-03-05T09:54:13.911Z,7.50
2023-03-05T09:56:47.676Z,8.10
2023-03-05T09:59:28.443Z,8.30
2023-03-05T10:02:03.491Z,8.07
2023-03-05T10:04:46.740Z,8.32
2023-03-05T10:07:34.690Z,7.47
2023-03-05T10:10:05.486Z,8.07
2023-03-05T10:13:15.101Z,7.90
2023-03-05T10:15:51.925Z,8.02
2023-03-05T10:18:41.913Z,8.02
2023-03-05T10:21:18.528Z,8.70
2023-03-05T10:23:54.715Z,9.32
2023-03-05T10:26:38.039Z,8.23
2023-03-05T10:29:10.529Z,6.80
2023-03-05T10:31:48.555Z,7.78
2023-03-05T10:34:39.738Z,6.85
2023-03-05T10:37:22.936Z,8.05
2023-03-05T10:39:56.845Z,7.40
2023-03-05T10:42:37.753Z,7.30
2023-03-05T10:45:17.124Z,9.73
2023-03-05T10:47:56.157Z,6.97
2023-03-05T10:50:22.549Z,7.10
2023-03-05T10:52:55.331Z,7.13
2023-03-05T10:55:22.268Z,6.93
2023-03-05T10:57:48.706Z,6.88
2023-03-05T11:00:24.132Z,8.52
2023-03-05T11:02:57.940Z,6.57
2023-03-05T11:05:42.624Z,6.90
2023-03-05T11:08:33.353Z,6.70
2023-03-05T11:11:11.129Z,7.03
2023-03-05T11:13:44.317Z,7.47
2023-03-05T11:16:19.962Z,7.57
2023-03-05T11:18:47.742Z,6.82
2023-03-05T11:21:27.439Z,7.28
2023-03-05T11:24:08.975Z,6.13
2023-03-05T11:26:35.692Z,6.15
2023-03-05T11:29:04.794Z,6.22
2023-03-05T11:31:33.170Z,6.07
2023-03-05T11:34:23.576Z,5.63
2023-03-05T11:36:53.087Z,6.18
2023-03-05T11:39:24.521Z,6.78
2023-03-05T11:41:58.011Z,6.20
2023-03-05T11:44:34.159Z,5.32
2023-03-05T11:47:05.030Z,5.40
2023-03-05T11:49:34.805Z,5.68
2023-03-05T11:52:28.208Z,5.13
2023-03-05T11:55:07.806Z,5.47
2023-03-05T11:57:49.019Z,5.22
2023-03-05T12:00:18.015Z,5.38
2023-03-05T12:02:46.665Z,5.78
2023-03-05T12:05:17.053Z,5.25
2023-03-05T12:07:48.231Z,5.35
2023-03-05T12:10:17.667Z,5.40
2023-03-05T12:15:22.637Z,5.72
2023-03-05T12:18:15.977Z,5.45
2023-03-05T12:20:49.016Z,5.70
2023-03-05T12:23:21.145Z,6.30
2023-03-05T12:25:50.384Z,5.60
2023-03-05T12:30:44.789Z,5.55
2023-03-05T12:33:31.601Z,6.35
2023-03-05T12:36:19.357Z,5.43
2023-03-05T12:38:51.783Z,6.13
2023-03-05T12:41:26.816Z,6.00
2023-03-05T12:44:06.633Z,5.55
2023-03-05T12:46:41.620Z,5.57
2023-03-05T12:49:20.302Z,4.55
2023-03-05T12:51:48.255Z,4.35
2023-03-05T12:54:27.041Z,4.60
2023-03-05T12:56:55.484Z,4.70
2023-03-05T12:59:23.829Z,4.70
2023-03-05T13:01:54.912Z,5.13
2023-03-05T13:04:26.426Z,4.28
2023-03-05T13:07:05.181Z,3.80
2023-03-05T13:09:35.645Z,3.47
2023-03-05T13:12:04.428Z,3.80
2023-03-05T13:14:42.771Z,4.00
2023-03-05T13:17:31.889Z,4.47
2023-03-05T13:20:00.073Z,4.53
2023-03-05T13:22:26.843Z,4.88
2023-03-05T13:25:13.855Z,4.75
2023-03-05T13:27:40.306Z,4.75
2023-03-05T13:30:20.640Z,5.32
2023-03-05T13:32:50.703Z,5.55
2023-03-05T13:35:17.356Z,5.30
2023-03-05T13:37:44.209Z,5.47
2023-03-05T13:40:23.910Z,5.40
2023-03-05T13:42:51.020Z,5.57
2023-03-05T13:45:26.158Z,5.60
2023-03-05T13:48:01.097Z,5.95
2023-03-05T13:50:30.756Z,5.18
2023-03-05T13:53:19.029Z,5.15
2023-03-05T13:55:46.740Z,5.17
2023-03-05T13:58:52.125Z,5.20
2023-03-05T14:01:24.794Z,4.93
2023-03-05T14:03:53.895Z,5.05
2023-03-05T14:06:22.043Z,5.20
2023-03-05T14:08:51.152Z,4.78
2023-03-05T14:11:18.700Z,4.75
2023-03-05T14:13:46.232Z,4.93
2023-03-05T14:16:15.855Z,4.32
2023-03-05T14:18:56.604Z,3.65
2023-03-05T14:21:23.614Z,4.50
2023-03-05T14:23:52.855Z,4.70
2023-03-05T14:28:51.504Z,3.30
2023-03-05T14:31:18.487Z,3.33
2023-03-05T14:33:45.150Z,3.30
2023-03-05T14:36:11.793Z,3.42
2023-03-05T14:38:42.959Z,3.53
2023-03-05T14:41:29.574Z,3.00
2023-03-05T14:43:56.336Z,3.17
2023-03-05T14:46:22.845Z,4.03
2023-03-05T14:48:49.295Z,4.07
2023-03-05T14:51:15.790Z,4.70
2023-03-05T14:53:47.597Z,4.05
2023-03-05T14:56:26.227Z,4.57
2023-03-05T14:58:52.913Z,4.85
2023-03-05T15:01:19.346Z,4.60
2023-03-05T15:03:45.807Z,4.78
2023-03-05T15:06:25.595Z,5.28
2023-03-05T15:08:52.905Z,5.32
2023-03-05T15:11:19.345Z,6.03
2023-03-05T15:13:45.761Z,5.00
2023-03-05T15:16:15.538Z,5.07
2023-03-05T15:18:42.008Z,4.60
2023-03-05T15:21:08.508Z,5.28
2023-03-05T15:23:38.079Z,4.85
2023-03-05T15:26:07.178Z,5.32
2023-03-05T15:28:35.912Z,5.60
2023-03-05T15:31:02.671Z,4.85
2023-03-05T15:33:29.600Z,4.55
2023-03-05T15:35:56.110Z,4.65
2023-03-05T15:38:23.004Z,5.07
2023-03-05T15:40:50.331Z,4.82
2023-03-05T15:43:18.528Z,5.55
2023-03-05T15:45:45.388Z,5.15
2023-03-05T15:48:12.330Z,5.25
2023-03-05T15:50:43.436Z,5.68
2023-03-05T15:53:12.228Z,5.72
2023-03-05T15:55:39.957Z,5.35
2023-03-05T15:58:06.990Z,5.32
2023-03-05T16:00:35.025Z,5.45
2023-03-05T16:03:01.480Z,5.22
2023-03-05T16:05:28.075Z,5.35
2023-03-05T16:07:54.985Z,4.53
2023-03-05T16:10:25.126Z,4.88
2023-03-05T16:12:55.766Z,5.13
2023-03-05T16:15:22.583Z,5.20
2023-03-05T16:17:53.414Z,5.05
2023-03-05T16:20:20.812Z,5.13
2023-03-05T16:22:47.290Z,4.47
2023-03-05T16:25:13.750Z,4.75
2023-03-05T16:27:40.189Z,5.13
2023-03-05T16:30:07.660Z,5.28
2023-03-05T16:32:34.119Z,4.60
2023-03-05T16:35:00.661Z,5.18
2023-03-05T16:37:27.129Z,5.25
2023-03-05T16:39:57.759Z,4.57
2023-03-05T16:42:24.309Z,4.70
2023-03-05T16:44:51.625Z,5.60
2023-03-05T16:47:18.025Z,4.80
2023-03-05T16:49:44.483Z,5.40
2023-03-05T16:52:18.729Z,7.05
2023-03-05T16:54:45.989Z,5.88
2023-03-05T16:57:12.536Z,6.20
2023-03-05T16:59:39.101Z,6.32
2023-03-05T17:02:05.782Z,10.10
2023-03-05T17:04:33.688Z,8.90
2023-03-05T17:07:00.760Z,6.30
2023-03-05T17:09:27.204Z,5.90
2023-03-05T17:11:54.300Z,7.03
2023-03-05T17:14:21.181Z,7.03
2023-03-05T17:16:48.244Z,5.90
2023-03-05T17:19:15.564Z,7.15
2023-03-05T17:21:42.728Z,6.22
2023-03-05T17:24:10.014Z,6.70
2023-03-05T17:26:36.549Z,7.82
2023-03-05T17:29:04.882Z,6.40
2023-03-05T17:31:31.541Z,5.65
2023-03-05T17:33:58.210Z,6.60
2023-03-05T17:36:25.206Z,6.30
2023-03-05T17:38:53.652Z,5.90
2023-03-05T17:41:20.407Z,5.40
2023-03-05T17:43:46.798Z,5.57
2023-03-05T17:46:13.645Z,6.38
2023-03-05T17:48:40.383Z,4.90
2023-03-05T17:51:08.343Z,5.63
2023-03-05T17:53:35.198Z,5.00
2023-03-05T17:56:02.040Z,5.43
2023-03-05T17:58:28.590Z,5.50
2023-03-05T18:00:55.234Z,5.30
2023-03-05T18:03:21.899Z,6.80
2023-03-05T18:05:48.449Z,6.13
2023-03-05T18:08:15.023Z,7.68
2023-03-05T18:10:41.505Z,7.88
2023-03-05T18:13:10.337Z,5.53
2023-03-05T18:15:40.393Z,5.18
2023-03-05T18:18:07.464Z,6.35
2023-03-05T18:20:36.468Z,5.60
2023-03-05T18:23:04.722Z,5.20
2023-03-05T18:25:31.911Z,5.18
2023-03-05T18:28:03.808Z,4.90
2023-03-05T18:30:30.558Z,5.95
2023-03-05T18:32:57.300Z,6.47
2023-03-05T18:35:24.439Z,11.60
2023-03-05T18:37:51.016Z,8.48
2023-03-05T18:40:20.217Z,12.98
2023-03-05T18:42:46.715Z,14.52
2023-03-05T18:45:15.167Z,11.55
2023-03-05T18:47:43.826Z,19.10
2023-03-05T18:50:12.034Z,22.42
2023-03-05T18:52:38.474Z,24.63
2023-03-05T18:55:05.423Z,58.45
2023-03-05T18:57:32.170Z,33.50
2023-03-05T18:59:58.706Z,44.58
2023-03-05T19:02:25.225Z,30.00
2023-03-05T19:04:51.704Z,46.05
2023-03-05T19:07:18.183Z,36.17
2023-03-05T19:09:53.593Z,33.10
2023-03-05T19:12:22.242Z,12.77
2023-03-05T19:14:48.844Z,11.10
2023-03-05T19:17:15.854Z,8.02
2023-03-05T19:19:45.344Z,8.43
2023-03-05T19:22:12.030Z,6.70
2023-03-05T19:24:38.750Z,6.43
2023-03-05T19:27:10.986Z,5.55
2023-03-05T19:29:38.416Z,6.35
2023-03-05T19:32:05.306Z,6.30
2023-03-05T19:34:32.458Z,5.78
2023-03-05T19:36:59.260Z,6.10
2023-03-05T19:39:25.907Z,6.22
2023-03-05T19:41:52.598Z,5.72
2023-03-05T19:44:19.369Z,5.90
2023-03-05T19:46:48.324Z,5.70
2023-03-05T19:49:16.468Z,5.55
2023-03-05T19:51:43.914Z,5.85
2023-03-05T19:54:11.728Z,5.88
2023-03-05T19:56:39.145Z,6.35
2023-03-05T19:59:06.192Z,5.38
2023-03-05T20:01:33.161Z,5.78
2023-03-05T20:04:01.937Z,5.95
2023-03-05T20:06:30.231Z,5.28
2023-03-05T20:08:57.245Z,5.93
2023-03-05T20:11:24.804Z,5.10
2023-03-05T20:13:52.106Z,5.72
2023-03-05T20:16:22.674Z,5.32
2023-03-05T20:18:54.612Z,5.00
2023-03-05T20:21:24.212Z,5.00
2023-03-05T20:23:52.053Z,5.40
2023-03-05T20:26:19.506Z,5.22
2023-03-05T20:28:46.047Z,5.30
2023-03-05T20:31:12.662Z,5.20
2023-03-05T20:33:39.386Z,5.35
2023-03-05T20:36:06.380Z,5.22
2023-03-05T20:38:32.930Z,4.65
2023-03-05T20:41:08.490Z,5.53
2023-03-05T20:43:37.467Z,5.25
2023-03-05T20:46:04.739Z,5.68
2023-03-05T20:48:33.554Z,5.30
2023-03-05T20:51:11.189Z,6.07
2023-03-05T20:53:37.827Z,5.28
2023-03-05T20:56:04.516Z,5.22
2023-03-05T20:58:31.040Z,6.05
2023-03-05T21:00:57.685Z,5.30
2023-03-05T21:03:25.687Z,5.93
2023-03-05T21:05:55.683Z,5.40
2023-03-05T21:08:22.406Z,6.32
2023-03-05T21:10:48.903Z,5.93
2023-03-05T21:13:15.467Z,5.82
2023-03-05T21:15:42.035Z,5.40
2023-03-05T21:18:08.554Z,5.68
2023-03-05T21:20:35.036Z,5.55
2023-03-05T21:23:01.870Z,5.72
2023-03-05T21:25:30.939Z,6.47
2023-03-05T21:28:08.649Z,6.43
2023-03-05T21:30:39.290Z,6.80
2023-03-05T21:33:11.325Z,5.80
2023-03-05T21:35:38.312Z,5.80
2023-03-05T21:38:06.641Z,5.53
2023-03-05T21:40:34.216Z,5.13
2023-03-05T21:43:00.848Z,5.18
2023-03-05T21:45:28.703Z,5.15
2023-03-05T21:47:56.227Z,5.50
2023-03-05T21:50:23.760Z,5.60
2023-03-05T21:52:50.768Z,5.82
2023-03-05T21:55:22.425Z,5.32
2023-03-05T21:57:49.151Z,4.97
2023-03-05T22:00:18.175Z,5.63
2023-03-05T22:02:45.768Z,5.10
2023-03-05T22:05:13.382Z,5.20
2023-03-05T22:07:40.190Z,4.88
2023-03-05T22:10:07.320Z,5.00
2023-03-05T22:12:58.870Z,5.03
2023-03-05T22:15:25.666Z,4.78
2023-03-05T22:17:52.220Z,5.28
2023-03-05T22:20:19.361Z,4.88
2023-03-05T22:22:45.947Z,5.40
2023-03-05T22:25:14.629Z,5.20
2023-03-05T22:27:42.153Z,5.68
2023-03-05T22:30:10.136Z,5.35
2023-03-05T22:32:37.298Z,4.90
2023-03-05T22:35:05.237Z,4.97
2023-03-05T22:37:32.554Z,5.07
2023-03-05T22:39:59.259Z,5.20
2023-03-05T22:42:25.832Z,5.57
2023-03-05T22:44:57.450Z,5.80
2023-03-05T22:47:25.003Z,5.13
2023-03-05T22:49:51.661Z,5.03
2023-03-05T22:52:18.185Z,5.25
2023-03-05T22:54:44.811Z,5.38
2023-03-05T22:57:11.580Z,4.97
2023-03-05T22:59:38.110Z,5.20
2023-03-05T23:02:04.877Z,5.78
2023-03-05T23:04:50.442Z,5.10
2023-03-05T23:07:27.502Z,4.85
2023-03-05T23:09:56.246Z,4.97
2023-03-05T23:12:24.354Z,5.10
2023-03-05T23:14:51.053Z,4.78
2023-03-05T23:17:17.821Z,5.22
2023-03-05T23:19:44.326Z,5.20
2023-03-05T23:22:12.511Z,5.43
2023-03-05T23:24:39.757Z,4.75
2023-03-05T23:27:07.082Z,4.93
2023-03-05T23:29:47.201Z,5.85
2023-03-05T23:32:13.848Z,4.68
2023-03-05T23:34:40.442Z,5.53
2023-03-05T23:37:07.420Z,5.03
2023-03-05T23:39:33.972Z,4.70
2023-03-05T23:42:00.528Z,5.07
2023-03-05T23:44:27.003Z,5.10
2023-03-05T23:46:53.613Z,5.00
2023-03-05T23:49:20.122Z,5.57
2023-03-05T23:51:46.611Z,5.22
2023-03-05T23:54:13.218Z,5.40
2023-03-05T23:56:39.741Z,5.22
2023-03-05T23:59:07.646Z,5.50
